createdAt,value
2022-11-28T00:01:18.817Z,100698.66
2022-11-28T00:04:08.355Z,100693.50
2022-11-28T00:07:03.319Z,100695.19
2022-11-28T00:09:54.097Z,100691.00
2022-11-28T00:12:43.139Z,100696.69
2022-11-28T00:15:34.880Z,100690.66
2022-11-28T00:18:17.051Z,100703.66
2022-11-28T00:21:07.184Z,100703.84
2022-11-28T00:23:53.558Z,100701.06
2022-11-28T00:26:46.647Z,100706.38
2022-11-28T00:29:32.181Z,100704.91
2022-11-28T00:32:24.729Z,100708.84
2022-11-28T00:35:17.145Z,100707.06
2022-11-28T00:38:04.018Z,100701.59
2022-11-28T00:40:45.119Z,100710.91
2022-11-28T00:43:23.185Z,100715.91
2022-11-28T00:46:04.269Z,100708.13
2022-11-28T00:48:47.541Z,100708.19
2022-11-28T00:51:36.151Z,100710.47
2022-11-28T00:54:23.041Z,100705.94
2022-11-28T00:57:07.583Z,100703.75
2022-11-28T00:59:54.344Z,100720.94
2022-11-28T01:02:46.845Z,100713.47
2022-11-28T01:05:33.280Z,100709.88
2022-11-28T01:08:25.070Z,100715.06
2022-11-28T01:11:08.314Z,100710.22
2022-11-28T01:13:58.084Z,100706.25
2022-11-28T01:16:37.269Z,100696.69
2022-11-28T01:19:16.471Z,100698.19
2022-11-28T01:22:03.130Z,100704.66
2022-11-28T01:24:45.163Z,100710.69
2022-11-28T01:27:23.264Z,100707.53
2022-11-28T01:30:10.772Z,100712.19
2022-11-28T01:32:56.135Z,100706.34
2022-11-28T01:35:39.740Z,100699.00
2022-11-28T01:38:26.468Z,100702.16
2022-11-28T01:41:22.126Z,100697.63
2022-11-28T01:44:41.332Z,100698.78
2022-11-28T01:47:29.670Z,100682.66
2022-11-28T01:50:09.323Z,100674.31
2022-11-28T01:52:58.312Z,100671.84
2022-11-28T01:55:45.483Z,100670.88
2022-11-28T01:58:36.083Z,100662.00
2022-11-28T02:01:17.005Z,100660.88
2022-11-28T02:04:03.540Z,100661.50
2022-11-28T02:06:53.146Z,100655.84
2022-11-28T02:09:39.433Z,100656.66
2022-11-28T02:12:43.186Z,100657.31
2022-11-28T02:15:52.619Z,100656.25
2022-11-28T02:19:16.632Z,100646.22
2022-11-28T02:22:25.020Z,100643.19
2022-11-28T02:25:38.849Z,100642.91
2022-11-28T02:28:29.824Z,100642.22
2022-11-28T02:31:59.579Z,100639.16
2022-11-28T02:35:03.624Z,100641.31
2022-11-28T02:38:00.103Z,100634.63
2022-11-28T02:40:52.489Z,100633.00
2022-11-28T02:44:07.177Z,100632.50
2022-11-28T02:46:59.638Z,100630.84
2022-11-28T02:49:44.139Z,100628.66
2022-11-28T02:52:40.065Z,100628.59
2022-11-28T02:55:21.838Z,100624.50
2022-11-28T02:58:19.092Z,100618.00
2022-11-28T03:01:03.473Z,100625.88
2022-11-28T03:04:07.494Z,100617.16
2022-11-28T03:07:05.135Z,100622.72
2022-11-28T03:09:58.877Z,100624.81
2022-11-28T03:12:59.336Z,100623.56
2022-11-28T03:16:08.472Z,100621.88
2022-11-28T03:19:15.732Z,100627.22
2022-11-28T03:22:26.565Z,100614.19
2022-11-28T03:25:32.247Z,100606.72
2022-11-28T03:28:44.970Z,100611.19
2022-11-28T03:31:30.524Z,100605.47
2022-11-28T03:34:24.947Z,100609.47
2022-11-28T03:37:20.115Z,100601.53
2022-11-28T03:40:05.640Z,100596.63
2022-11-28T03:42:53.139Z,100591.88
2022-11-28T03:45:55.806Z,100586.41
2022-11-28T03:48:50.634Z,100581.66
2022-11-28T03:51:58.682Z,100574.94
2022-11-28T03:54:47.663Z,100573.78
2022-11-28T03:57:41.976Z,100566.28
2022-11-28T04:00:28.721Z,100564.75
2022-11-28T04:04:02.947Z,100555.28
2022-11-28T04:07:24.769Z,100561.13
2022-11-28T04:10:19.507Z,100554.44
2022-11-28T04:13:49.735Z,100561.75
2022-11-28T04:16:58.568Z,100555.78
2022-11-28T04:20:04.912Z,100546.03
2022-11-28T04:23:06.900Z,100547.63
2022-11-28T04:25:45.572Z,100551.31
2022-11-28T04:28:33.091Z,100533.53
2022-11-28T04:31:12.343Z,100537.56
2022-11-28T04:34:02.698Z,100543.28
2022-11-28T04:36:45.322Z,100548.53
2022-11-28T04:39:36.952Z,100549.56
2022-11-28T04:42:38.218Z,100549.38
2022-11-28T04:45:25.905Z,100544.19
2022-11-28T04:48:13.168Z,100538.63
2022-11-28T04:51:07.155Z,100543.03
2022-11-28T04:53:53.295Z,100543.50
2022-11-28T04:56:42.621Z,100540.88
2022-11-28T04:59:26.368Z,100542.38
2022-11-28T05:02:14.634Z,100535.69
2022-11-28T05:05:00.980Z,100530.16
2022-11-28T05:07:45.190Z,100546.66
2022-11-28T05:10:33.584Z,100542.78
2022-11-28T05:13:22.141Z,100537.69
2022-11-28T05:16:06.181Z,100532.91
2022-11-28T05:18:48.341Z,100539.75
2022-11-28T05:21:32.542Z,100550.13
2022-11-28T05:24:18.927Z,100549.19
2022-11-28T05:27:05.447Z,100542.75
2022-11-28T05:29:52.981Z,100544.09
2022-11-28T05:32:52.345Z,100539.63
2022-11-28T05:35:37.169Z,100548.16
2022-11-28T05:38:21.094Z,100545.41
2022-11-28T05:41:04.342Z,100555.94
2022-11-28T05:43:48.016Z,100560.13
2022-11-28T05:46:40.310Z,100556.47
2022-11-28T05:49:30.152Z,100564.81
2022-11-28T05:52:16.325Z,100566.16
2022-11-28T05:55:00.503Z,100559.06
2022-11-28T05:57:59.253Z,100568.28
2022-11-28T06:00:46.612Z,100573.25
2022-11-28T06:03:38.119Z,100577.81
2022-11-28T06:06:29.026Z,100575.50
2022-11-28T06:09:10.265Z,100575.81
2022-11-28T06:11:57.162Z,100576.53
2022-11-28T06:14:33.694Z,100577.97
2022-11-28T06:17:19.411Z,100570.78
2022-11-28T06:20:09.069Z,100564.38
2022-11-28T06:22:51.818Z,100566.88
2022-11-28T06:25:37.932Z,100560.69
2022-11-28T06:28:20.998Z,100555.50
2022-11-28T06:31:09.165Z,100559.34
2022-11-28T06:34:02.597Z,100551.41
2022-11-28T06:36:46.362Z,100557.56
2022-11-28T06:39:32.958Z,100563.44
2022-11-28T06:42:20.038Z,100570.66
2022-11-28T06:45:17.788Z,100569.19
2022-11-28T06:47:59.117Z,100579.34
2022-11-28T06:50:40.106Z,100581.03
2022-11-28T06:53:27.277Z,100581.03
2022-11-28T06:56:29.092Z,100584.03
2022-11-28T06:59:13.243Z,100592.78
2022-11-28T07:02:07.275Z,100593.16
2022-11-28T07:04:42.978Z,100590.19
2022-11-28T07:07:26.863Z,100595.91
2022-11-28T07:10:06.109Z,100587.53
2022-11-28T07:12:49.693Z,100576.16
2022-11-28T07:15:32.699Z,100579.16
2022-11-28T07:18:13.514Z,100582.91
2022-11-28T07:21:06.110Z,100578.16
2022-11-28T07:23:53.532Z,100579.84
2022-11-28T07:26:36.857Z,100584.06
2022-11-28T07:29:24.598Z,100578.84
2022-11-28T07:32:19.469Z,100576.97
2022-11-28T07:35:12.257Z,100578.38
2022-11-28T07:37:56.931Z,100579.19
2022-11-28T07:40:48.084Z,100578.88
2022-11-28T07:43:31.456Z,100583.84
2022-11-28T07:46:23.171Z,100571.69
2022-11-28T07:49:11.582Z,100567.81
2022-11-28T07:51:58.608Z,100565.13
2022-11-28T07:54:39.859Z,100555.78
2022-11-28T08:00:21.163Z,100559.53
2022-11-28T08:03:15.830Z,100567.06
2022-11-28T08:06:07.272Z,100562.41
2022-11-28T08:09:02.470Z,100561.88
2022-11-28T08:11:46.147Z,100554.59
2022-11-28T08:14:32.445Z,100552.41
2022-11-28T08:17:24.047Z,100557.28
2022-11-28T08:20:09.296Z,100546.88
2022-11-28T08:22:58.367Z,100542.00
2022-11-28T08:25:48.088Z,100548.88
2022-11-28T08:28:38.875Z,100544.88
2022-11-28T08:31:51.177Z,100549.75
2022-11-28T08:34:35.125Z,100549.91
2022-11-28T08:37:32.515Z,100562.78
2022-11-28T08:40:15.278Z,100555.25
2022-11-28T08:43:10.188Z,100558.13
2022-11-28T08:46:00.187Z,100561.63
2022-11-28T08:48:44.116Z,100553.94
2022-11-28T08:51:30.862Z,100558.94
2022-11-28T08:54:13.150Z,100565.63
2022-11-28T08:56:57.934Z,100567.31
2022-11-28T08:59:44.908Z,100562.66
2022-11-28T09:02:31.061Z,100567.16
2022-11-28T09:05:14.719Z,100564.63
2022-11-28T09:08:11.595Z,100556.91
2022-11-28T09:10:58.205Z,100564.97
2022-11-28T09:13:45.611Z,100565.31
2022-11-28T09:16:29.892Z,100556.44
2022-11-28T09:19:16.770Z,100558.94
2022-11-28T09:21:57.850Z,100555.59
2022-11-28T09:24:36.007Z,100553.91
2022-11-28T09:27:11.426Z,100543.19
2022-11-28T09:29:57.447Z,100536.13
2022-11-28T09:32:42.241Z,100539.84
2022-11-28T09:35:35.122Z,100537.78
2022-11-28T09:38:13.378Z,100537.13
2022-11-28T09:41:05.101Z,100530.03
2022-11-28T09:43:55.016Z,100524.16
2022-11-28T09:46:51.343Z,100522.84
2022-11-28T09:50:12.494Z,100527.22
2022-11-28T09:53:42.009Z,100518.00
2022-11-28T09:56:31.113Z,100513.22
2022-11-28T09:59:23.140Z,100510.06
2022-11-28T10:02:46.032Z,100501.44
2022-11-28T10:05:38.778Z,100506.59
2022-11-28T10:09:26.058Z,100507.44
2022-11-28T10:12:39.835Z,100502.41
2022-11-28T10:15:42.466Z,100500.53
2022-11-28T10:19:53.996Z,100496.19
2022-11-28T10:22:41.646Z,100490.94
2022-11-28T10:26:07.022Z,100493.56
2022-11-28T10:28:53.845Z,100495.28
2022-11-28T10:31:55.524Z,100485.13
2022-11-28T10:34:54.250Z,100489.75
2022-11-28T10:37:40.029Z,100483.03
2022-11-28T10:40:48.233Z,100468.22
2022-11-28T10:43:51.798Z,100474.16
2022-11-28T10:47:05.364Z,100471.97
2022-11-28T10:50:11.545Z,100466.72
2022-11-28T10:53:23.573Z,100468.97
2022-11-28T10:56:30.065Z,100464.56
2022-11-28T10:59:43.426Z,100453.34
2022-11-28T11:02:43.313Z,100456.38
2022-11-28T11:05:28.816Z,100458.25
2022-11-28T11:08:08.378Z,100463.69
2022-11-28T11:11:01.790Z,100462.13
2022-11-28T11:14:01.060Z,100459.00
2022-11-28T11:16:59.021Z,100459.13
2022-11-28T11:19:42.477Z,100449.56
2022-11-28T11:22:33.524Z,100456.41
2022-11-28T11:25:22.932Z,100451.06
2022-11-28T11:28:24.672Z,100446.47
2022-11-28T11:31:34.759Z,100449.88
2022-11-28T11:34:38.712Z,100457.78
2022-11-28T11:38:03.665Z,100448.97
2022-11-28T11:40:48.181Z,100445.78
2022-11-28T11:44:07.093Z,100447.09
2022-11-28T11:47:00.825Z,100442.53
2022-11-28T11:49:46.219Z,100448.56
2022-11-28T11:52:33.804Z,100446.88
2022-11-28T11:55:48.041Z,100442.16
2022-11-28T11:58:34.474Z,100435.28
2022-11-28T12:01:18.191Z,100434.88
2022-11-28T12:04:46.497Z,100436.19
2022-11-28T12:07:56.171Z,100434.59
2022-11-28T12:10:44.390Z,100434.41
2022-11-28T12:13:38.190Z,100423.03
2022-11-28T12:16:46.685Z,100434.13
2022-11-28T12:19:55.284Z,100427.78
2022-11-28T12:23:22.153Z,100431.09
2022-11-28T12:26:21.648Z,100440.09
2022-11-28T12:29:11.905Z,100428.78
2022-11-28T12:32:44.910Z,100429.13
2022-11-28T12:36:14.393Z,100432.78
2022-11-28T12:39:11.724Z,100426.91
2022-11-28T12:42:12.092Z,100424.06
2022-11-28T12:45:39.935Z,100424.59
2022-11-28T12:48:47.436Z,100418.06
2022-11-28T12:51:49.131Z,100418.41
2022-11-28T12:55:15.987Z,100417.06
2022-11-28T13:01:57.820Z,100414.00
2022-11-28T13:05:03.453Z,100402.97
2022-11-28T13:08:00.201Z,100400.97
2022-11-28T13:10:50.566Z,100402.97
2022-11-28T13:13:52.767Z,100405.50
2022-11-28T13:16:58.817Z,100411.63
2022-11-28T13:19:53.576Z,100406.53
2022-11-28T13:22:52.849Z,100407.84
2022-11-28T13:26:10.220Z,100401.13
2022-11-28T13:29:15.792Z,100405.34
2022-11-28T13:32:03.539Z,100399.31
2022-11-28T13:34:51.625Z,100405.16
2022-11-28T13:42:09.726Z,100392.44
2022-11-28T13:45:13.239Z,100388.75
2022-11-28T13:48:05.742Z,100392.63
2022-11-28T13:51:06.632Z,100388.25
2022-11-28T13:54:21.359Z,100378.84
2022-11-28T13:57:27.926Z,100380.72
2022-11-28T14:00:29.259Z,100383.75
2022-11-28T14:03:21.280Z,100379.41
2022-11-28T14:06:10.293Z,100382.59
2022-11-28T14:09:44.773Z,100384.28
2022-11-28T14:13:03.322Z,100380.25
2022-11-28T14:16:10.925Z,100379.38
2022-11-28T14:19:31.221Z,100369.69
2022-11-28T14:25:34.791Z,100383.41
2022-11-28T14:28:40.423Z,100380.06
2022-11-28T14:31:39.922Z,100376.84
2022-11-28T14:34:47.289Z,100370.31
2022-11-28T14:37:52.261Z,100370.31
2022-11-28T14:40:56.386Z,100368.50
2022-11-28T14:43:52.460Z,100363.00
2022-11-28T14:46:37.094Z,100369.53
2022-11-28T14:49:30.245Z,100366.69
2022-11-28T14:55:42.719Z,100366.84
2022-11-28T14:58:31.739Z,100369.16
2022-11-28T15:01:26.790Z,100369.81
2022-11-28T15:04:49.981Z,100364.63
2022-11-28T15:08:13.516Z,100363.78
2022-11-28T15:11:12.754Z,100358.22
2022-11-28T15:14:11.488Z,100354.00
2022-11-28T15:17:03.515Z,100370.50
2022-11-28T15:20:17.593Z,100365.41
2022-11-28T15:22:58.224Z,100369.16
2022-11-28T15:25:37.466Z,100371.94
2022-11-28T15:28:24.026Z,100369.84
2022-11-28T15:31:06.170Z,100375.13
2022-11-28T15:33:53.535Z,100376.28
2022-11-28T15:36:35.646Z,100383.78
2022-11-28T15:39:59.450Z,100383.66
2022-11-28T15:42:49.155Z,100376.66
2022-11-28T15:45:51.406Z,100383.53
2022-11-28T15:49:07.458Z,100387.16
2022-11-28T15:52:02.170Z,100387.72
2022-11-28T15:54:52.252Z,100387.34
2022-11-28T15:57:40.265Z,100384.94
2022-11-28T16:00:24.422Z,100396.56
2022-11-28T16:03:16.730Z,100394.78
2022-11-28T16:06:08.039Z,100395.03
2022-11-28T16:09:09.588Z,100396.69
2022-11-28T16:11:56.027Z,100391.75
2022-11-28T16:14:51.442Z,100400.19
2022-11-28T16:17:44.719Z,100398.09
2022-11-28T16:20:46.453Z,100401.72
2022-11-28T16:23:44.451Z,100402.59
2022-11-28T16:26:46.063Z,100400.81
2022-11-28T16:29:36.476Z,100399.69
2022-11-28T16:32:37.055Z,100402.72
2022-11-28T16:35:44.773Z,100395.91
2022-11-28T16:38:36.562Z,100397.69
2022-11-28T16:41:28.723Z,100400.53
2022-11-28T16:44:22.289Z,100399.31
2022-11-28T16:47:11.839Z,100404.13
2022-11-28T16:50:19.088Z,100407.53
2022-11-28T16:53:06.681Z,100405.59
2022-11-28T16:55:46.311Z,100420.78
2022-11-28T16:58:33.660Z,100403.19
2022-11-28T17:01:14.261Z,100404.03
2022-11-28T17:03:59.158Z,100411.06
2022-11-28T17:06:45.543Z,100411.47
2022-11-28T17:09:37.871Z,100412.72
2022-11-28T17:12:40.153Z,100407.88
2022-11-28T17:15:28.090Z,100408.75
2022-11-28T17:18:17.879Z,100409.34
2022-11-28T17:21:00.546Z,100404.03
2022-11-28T17:23:41.009Z,100403.50
2022-11-28T17:26:21.634Z,100410.53
2022-11-28T17:29:04.613Z,100407.47
2022-11-28T17:32:07.507Z,100412.00
2022-11-28T17:34:54.349Z,100412.72
2022-11-28T17:37:41.412Z,100413.66
2022-11-28T17:40:33.524Z,100409.34
2022-11-28T17:43:21.620Z,100418.88
2022-11-28T17:46:10.531Z,100409.50
2022-11-28T17:48:59.267Z,100421.03
2022-11-28T17:51:39.529Z,100423.00
2022-11-28T17:54:24.892Z,100412.50
2022-11-28T17:57:05.506Z,100410.97
2022-11-28T17:59:47.845Z,100415.56
2022-11-28T18:02:35.075Z,100409.13
2022-11-28T18:05:30.050Z,100408.38
2022-11-28T18:08:22.526Z,100416.94
2022-11-28T18:11:17.704Z,100414.69
2022-11-28T18:14:04.989Z,100418.06
2022-11-28T18:16:54.814Z,100413.38
2022-11-28T18:19:43.449Z,100413.00
2022-11-28T18:22:22.974Z,100415.38
2022-11-28T18:25:05.187Z,100415.66
2022-11-28T18:27:46.916Z,100409.19
2022-11-28T18:30:36.884Z,100407.94
2022-11-28T18:33:16.997Z,100410.72
2022-11-28T18:36:07.849Z,100411.41
2022-11-28T18:39:04.021Z,100407.69
2022-11-28T18:41:40.294Z,100422.59
2022-11-28T18:44:25.368Z,100425.91
2022-11-28T18:47:15.031Z,100426.34
2022-11-28T18:50:03.051Z,100421.25
2022-11-28T18:52:49.248Z,100421.28
2022-11-28T18:55:34.590Z,100427.09
2022-11-28T18:58:22.526Z,100428.41
2022-11-28T19:01:18.035Z,100423.66
2022-11-28T19:04:05.092Z,100421.47
2022-11-28T19:06:47.222Z,100429.06
2022-11-28T19:09:23.251Z,100426.88
2022-11-28T19:12:07.103Z,100428.19
2022-11-28T19:14:45.991Z,100423.56
2022-11-28T19:17:35.498Z,100424.78
2022-11-28T19:20:27.771Z,100426.63
2022-11-28T19:23:19.190Z,100425.19
2022-11-28T19:26:29.290Z,100424.94
2022-11-28T19:29:21.298Z,100415.34
2022-11-28T19:31:58.845Z,100422.66
2022-11-28T19:34:46.374Z,100421.69
2022-11-28T19:37:32.872Z,100417.06
2022-11-28T19:40:26.824Z,100409.50
2022-11-28T19:43:18.781Z,100410.63
2022-11-28T19:46:12.516Z,100408.13
2022-11-28T19:49:02.685Z,100405.25
2022-11-28T19:51:50.130Z,100402.00
2022-11-28T19:54:32.132Z,100412.09
2022-11-28T19:57:18.879Z,100404.56
2022-11-28T20:00:06.164Z,100410.59
2022-11-28T20:03:10.070Z,100407.53
2022-11-28T20:05:58.731Z,100408.56
2022-11-28T20:08:43.404Z,100418.22
2022-11-28T20:11:27.056Z,100405.78
2022-11-28T20:14:25.899Z,100406.63
2022-11-28T20:17:13.014Z,100406.75
2022-11-28T20:20:00.028Z,100407.88
2022-11-28T20:22:40.981Z,100402.31
2022-11-28T20:25:32.014Z,100407.34
2022-11-28T20:28:19.396Z,100410.59
2022-11-28T20:30:57.903Z,100400.06
2022-11-28T20:33:40.869Z,100410.31
2022-11-28T20:36:26.327Z,100403.03
2022-11-28T20:39:00.231Z,100399.38
2022-11-28T20:41:48.650Z,100408.91
2022-11-28T20:44:32.030Z,100405.81
2022-11-28T20:47:32.339Z,100410.41
2022-11-28T20:50:13.683Z,100415.31
2022-11-28T20:52:57.005Z,100407.41
2022-11-28T20:55:46.608Z,100414.81
2022-11-28T20:58:34.554Z,100420.25
2022-11-28T21:01:13.190Z,100420.66
2022-11-28T21:03:57.656Z,100414.91
2022-11-28T21:06:45.050Z,100419.88
2022-11-28T21:09:22.491Z,100418.66
2022-11-28T21:12:04.036Z,100427.34
2022-11-28T21:14:54.736Z,100423.41
2022-11-28T21:17:49.010Z,100426.22
2022-11-28T21:20:33.677Z,100420.88
2022-11-28T21:23:15.148Z,100425.09
2022-11-28T21:26:08.419Z,100440.25
2022-11-28T21:28:57.039Z,100423.94
2022-11-28T21:31:35.970Z,100427.84
2022-11-28T21:34:26.867Z,100423.31
2022-11-28T21:37:21.500Z,100423.63
2022-11-28T21:40:02.509Z,100416.59
2022-11-28T21:42:49.282Z,100426.13
2022-11-28T21:45:33.763Z,100418.75
2022-11-28T21:48:16.869Z,100421.47
2022-11-28T21:51:09.046Z,100419.88
2022-11-28T21:53:44.410Z,100424.53
2022-11-28T21:56:31.366Z,100423.78
2022-11-28T21:59:18.358Z,100422.69
2022-11-28T22:02:11.874Z,100425.75
2022-11-28T22:05:02.201Z,100415.25
2022-11-28T22:07:50.407Z,100420.91
2022-11-28T22:10:32.245Z,100420.41
2022-11-28T22:13:21.201Z,100421.94
2022-11-28T22:16:02.034Z,100429.97
2022-11-28T22:18:52.045Z,100415.25
2022-11-28T22:24:40.352Z,100426.88
2022-11-28T22:27:21.685Z,100429.41
2022-11-28T22:30:02.030Z,100428.34
2022-11-28T22:32:50.353Z,100422.22
2022-11-28T22:35:46.022Z,100427.28
2022-11-28T22:38:38.581Z,100416.31
2022-11-28T22:41:30.585Z,100419.13
2022-11-28T22:44:11.988Z,100426.97
2022-11-28T22:46:54.978Z,100425.59
2022-11-28T22:49:42.795Z,100421.53
2022-11-28T22:52:28.054Z,100417.06
2022-11-28T22:55:09.317Z,100415.75
2022-11-28T22:57:58.561Z,100418.81
2022-11-28T23:00:42.668Z,100419.81
2022-11-28T23:03:23.591Z,100414.25
2022-11-28T23:06:22.333Z,100421.16
2022-11-28T23:09:13.707Z,100420.88
2022-11-28T23:12:03.330Z,100421.94
2022-11-28T23:14:48.520Z,100413.84
2022-11-28T23:17:31.092Z,100416.13
2022-11-28T23:20:15.032Z,100419.78
2022-11-28T23:23:10.995Z,100415.53
2022-11-28T23:25:45.897Z,100420.50
2022-11-28T23:28:37.690Z,100418.47
2022-11-28T23:31:43.208Z,100422.00
2022-11-28T23:34:27.102Z,100419.78
2022-11-28T23:37:22.871Z,100418.72
2022-11-28T23:40:04.058Z,100422.13
2022-11-28T23:42:53.580Z,100422.06
2022-11-28T23:45:35.907Z,100418.41
2022-11-28T23:48:25.461Z,100427.19
2022-11-28T23:51:10.009Z,100421.28
2022-11-28T23:53:52.004Z,100414.81
2022-11-28T23:56:36.279Z,100412.34
2022-11-28T23:59:17.685Z,100413.06
